createdAt,value
2018-08-19T00:00:58.877Z,23.30
2018-08-19T00:03:27.388Z,23.30
2018-08-19T00:05:55.904Z,23.30
2018-08-19T00:08:24.430Z,23.20
2018-08-19T00:11:01.933Z,23.20
2018-08-19T00:13:30.459Z,23.20
2018-08-19T00:15:59.028Z,23.20
2018-08-19T00:18:27.791Z,23.20
2018-08-19T00:20:56.520Z,23.20
2018-08-19T00:23:25.036Z,23.20
2018-08-19T00:25:53.540Z,23.20
2018-08-19T00:28:22.131Z,23.20
2018-08-19T00:30:50.632Z,23.20
2018-08-19T00:33:19.140Z,23.20
2018-08-19T00:35:47.659Z,23.20
2018-08-19T00:38:16.514Z,23.20
2018-08-19T00:40:45.536Z,23.10
2018-08-19T00:43:14.048Z,23.10
2018-08-19T00:45:42.560Z,23.10
2018-08-19T00:48:12.770Z,23.10
2018-08-19T00:50:41.686Z,23.10
2018-08-19T00:53:11.539Z,23.10
2018-08-19T00:55:45.360Z,23.10
2018-08-19T00:58:18.408Z,23.10
2018-08-19T01:00:46.941Z,23.10
2018-08-19T01:03:15.450Z,23.10
2018-08-19T01:05:43.991Z,23.10
2018-08-19T01:08:13.850Z,23.00
2018-08-19T01:10:43.090Z,23.00
2018-08-19T01:13:12.929Z,23.00
2018-08-19T01:15:41.482Z,23.00
2018-08-19T01:18:09.983Z,23.00
2018-08-19T01:20:38.484Z,23.00
2018-08-19T01:23:06.975Z,23.00
2018-08-19T01:25:35.473Z,23.00
2018-08-19T01:28:04.047Z,23.00
2018-08-19T01:30:32.544Z,23.00
2018-08-19T01:33:01.052Z,23.00
2018-08-19T01:35:37.640Z,22.90
2018-08-19T01:38:07.068Z,22.90
2018-08-19T01:40:35.609Z,22.90
2018-08-19T01:43:05.821Z,22.90
2018-08-19T01:45:35.115Z,22.90
2018-08-19T01:48:03.627Z,22.90
2018-08-19T01:50:32.122Z,22.90
2018-08-19T01:53:00.640Z,22.90
2018-08-19T01:55:31.142Z,22.90
2018-08-19T01:57:59.656Z,22.90
2018-08-19T02:00:28.159Z,22.90
2018-08-19T02:03:02.724Z,22.90
2018-08-19T02:05:31.536Z,22.80
2018-08-19T02:08:02.552Z,22.80
2018-08-19T02:10:32.427Z,22.80
2018-08-19T02:13:01.434Z,22.80
2018-08-19T02:15:31.335Z,22.80
2018-08-19T02:18:06.394Z,22.80
2018-08-19T02:20:38.232Z,22.80
2018-08-19T02:23:08.583Z,22.80
2018-08-19T02:25:45.414Z,22.80
2018-08-19T02:28:15.635Z,22.80
2018-08-19T02:31:02.623Z,22.80
2018-08-19T02:33:36.060Z,22.80
2018-08-19T02:36:06.301Z,22.80
2018-08-19T02:38:35.588Z,22.80
2018-08-19T02:41:04.564Z,22.70
2018-08-19T02:43:33.064Z,22.80
2018-08-19T02:46:01.559Z,22.70
2018-08-19T02:48:43.499Z,22.70
2018-08-19T02:51:19.530Z,22.70
2018-08-19T02:53:50.424Z,22.70
2018-08-19T02:56:19.693Z,22.70
2018-08-19T02:58:49.023Z,22.70
2018-08-19T03:01:18.698Z,22.70
2018-08-19T03:03:47.193Z,22.70
2018-08-19T03:06:15.728Z,22.70
2018-08-19T03:08:49.401Z,22.70
2018-08-19T03:11:19.484Z,22.70
2018-08-19T03:13:48.819Z,22.70
2018-08-19T03:16:17.303Z,22.60
2018-08-19T03:18:45.875Z,22.60
2018-08-19T03:21:14.396Z,22.60
2018-08-19T03:23:42.895Z,22.60
2018-08-19T03:26:11.394Z,22.60
2018-08-19T03:28:40.300Z,22.60
2018-08-19T03:31:11.576Z,22.60
2018-08-19T03:33:40.135Z,22.60
2018-08-19T03:36:09.143Z,22.60
2018-08-19T03:38:37.647Z,22.60
2018-08-19T03:41:06.135Z,22.60
2018-08-19T03:43:34.636Z,22.60
2018-08-19T03:46:12.326Z,22.50
2018-08-19T03:48:41.175Z,22.50
2018-08-19T03:51:12.555Z,22.50
2018-08-19T03:53:41.108Z,22.50
2018-08-19T03:56:13.815Z,22.50
2018-08-19T03:58:42.355Z,22.50
2018-08-19T04:01:11.027Z,22.50
2018-08-19T04:03:39.535Z,22.50
2018-08-19T04:06:08.048Z,22.50
2018-08-19T04:08:51.916Z,22.50
2018-08-19T04:11:20.435Z,22.50
2018-08-19T04:13:48.937Z,22.50
2018-08-19T04:16:17.448Z,22.50
2018-08-19T04:18:46.960Z,22.50
2018-08-19T04:21:16.815Z,22.50
2018-08-19T04:23:47.764Z,22.50
2018-08-19T04:26:16.269Z,22.50
2018-08-19T04:28:45.634Z,22.50
2018-08-19T04:31:19.387Z,22.50
2018-08-19T04:33:49.090Z,22.50
2018-08-19T04:36:23.671Z,22.50
2018-08-19T04:38:52.155Z,22.50
2018-08-19T04:41:20.678Z,22.60
2018-08-19T04:43:49.422Z,22.60
2018-08-19T04:46:17.936Z,22.60
2018-08-19T04:48:47.713Z,22.60
2018-08-19T04:51:16.226Z,22.60
2018-08-19T04:53:44.743Z,22.70
2018-08-19T04:56:13.247Z,22.70
2018-08-19T04:58:41.749Z,22.70
2018-08-19T05:01:11.440Z,22.70
2018-08-19T05:03:41.651Z,22.70
2018-08-19T05:06:10.147Z,22.70
2018-08-19T05:08:38.657Z,22.80
2018-08-19T05:11:07.183Z,22.80
2018-08-19T05:13:35.697Z,22.80
2018-08-19T05:16:04.205Z,22.80
2018-08-19T05:18:32.694Z,22.90
2018-08-19T05:21:16.547Z,22.90
2018-08-19T05:23:45.263Z,23.00
2018-08-19T05:26:14.425Z,23.00
2018-08-19T05:28:47.474Z,23.10
2018-08-19T05:31:15.973Z,23.20
2018-08-19T05:33:44.470Z,23.40
2018-08-19T05:36:12.980Z,23.50
2018-08-19T05:38:41.543Z,23.60
2018-08-19T05:41:10.542Z,23.80
2018-08-19T05:43:39.044Z,23.80
2018-08-19T05:46:07.548Z,23.90
2018-08-19T05:48:36.042Z,24.00
2018-08-19T05:51:04.546Z,24.10
2018-08-19T05:53:34.183Z,24.10
2018-08-19T05:56:02.694Z,24.30
2018-08-19T05:58:31.185Z,24.30
2018-08-19T06:01:01.184Z,24.50
2018-08-19T06:03:30.209Z,24.60
2018-08-19T06:05:59.329Z,24.70
2018-08-19T06:08:27.839Z,24.80
2018-08-19T06:10:56.364Z,25.00
2018-08-19T06:13:27.273Z,25.00
2018-08-19T06:15:55.872Z,25.20
2018-08-19T06:18:24.963Z,25.30
2018-08-19T06:20:53.447Z,25.40
2018-08-19T06:23:22.085Z,25.50
2018-08-19T06:25:50.612Z,25.70
2018-08-19T06:28:19.099Z,25.80
2018-08-19T06:30:47.604Z,25.90
2018-08-19T06:33:16.134Z,26.10
2018-08-19T06:35:44.632Z,26.20
2018-08-19T06:38:13.146Z,26.30
2018-08-19T06:40:41.651Z,26.30
2018-08-19T06:43:10.203Z,26.40
2018-08-19T06:45:38.695Z,26.40
2018-08-19T06:48:07.187Z,26.40
2018-08-19T06:50:35.738Z,26.50
2018-08-19T06:53:04.248Z,26.60
2018-08-19T06:55:32.751Z,26.60
2018-08-19T06:58:01.276Z,26.70
2018-08-19T07:00:31.075Z,26.80
2018-08-19T07:03:04.162Z,26.90
2018-08-19T07:05:33.670Z,27.10
2018-08-19T07:08:02.687Z,27.20
2018-08-19T07:10:38.573Z,27.40
2018-08-19T07:13:10.639Z,27.50
2018-08-19T07:15:40.502Z,27.60
2018-08-19T07:18:11.144Z,27.80
2018-08-19T07:20:40.674Z,27.90
2018-08-19T07:23:09.847Z,28.00
2018-08-19T07:25:40.263Z,28.10
2018-08-19T07:28:09.896Z,28.30
2018-08-19T07:30:38.628Z,28.40
2018-08-19T07:33:07.644Z,28.50
2018-08-19T07:35:36.328Z,28.60
2018-08-19T07:38:05.019Z,28.80
2018-08-19T07:40:33.914Z,28.90
2018-08-19T07:43:02.693Z,29.10
2018-08-19T07:45:31.192Z,29.30
2018-08-19T07:47:59.716Z,29.40
2018-08-19T07:50:28.222Z,29.50
2018-08-19T07:52:56.732Z,29.70
2018-08-19T07:55:25.259Z,29.90
2018-08-19T07:57:53.761Z,29.90
2018-08-19T08:00:26.467Z,30.00
2018-08-19T08:02:55.248Z,30.10
2018-08-19T08:05:24.607Z,30.10
2018-08-19T08:07:53.112Z,30.20
2018-08-19T08:10:21.603Z,30.20
2018-08-19T08:12:54.864Z,30.30
2018-08-19T08:15:23.390Z,30.40
2018-08-19T08:17:51.896Z,30.50
2018-08-19T08:20:20.405Z,30.70
2018-08-19T08:22:48.930Z,30.90
2018-08-19T08:25:17.431Z,31.10
2018-08-19T08:27:45.935Z,31.30
2018-08-19T08:30:14.443Z,31.50
2018-08-19T08:32:45.673Z,31.50
2018-08-19T08:35:14.183Z,31.50
2018-08-19T08:37:43.299Z,31.60
2018-08-19T08:40:12.262Z,31.60
2018-08-19T08:42:42.213Z,31.60
2018-08-19T08:45:12.309Z,31.60
2018-08-19T08:47:41.178Z,31.60
2018-08-19T08:50:11.067Z,31.50
2018-08-19T08:52:42.166Z,31.50
2018-08-19T08:55:11.552Z,31.50
2018-08-19T08:57:40.055Z,31.50
2018-08-19T09:00:09.759Z,31.40
2018-08-19T09:02:38.279Z,31.40
2018-08-19T09:05:09.135Z,31.30
2018-08-19T09:07:37.636Z,31.30
2018-08-19T09:10:06.143Z,31.20
2018-08-19T09:12:43.315Z,31.10
2018-08-19T09:15:12.187Z,31.00
2018-08-19T09:17:40.696Z,30.90
2018-08-19T09:20:10.324Z,30.70
2018-08-19T09:22:38.823Z,30.60
2018-08-19T09:25:08.538Z,30.50
2018-08-19T09:27:38.115Z,30.30
2018-08-19T09:30:07.835Z,30.20
2018-08-19T09:32:50.486Z,30.00
2018-08-19T09:35:18.970Z,29.90
2018-08-19T09:37:47.496Z,29.80
2018-08-19T09:40:16.011Z,29.60
2018-08-19T09:42:44.523Z,29.50
2018-08-19T09:45:13.031Z,29.40
2018-08-19T09:47:41.608Z,29.30
2018-08-19T09:50:10.048Z,29.30
2018-08-19T09:52:38.542Z,29.20
2018-08-19T09:55:09.846Z,29.20
2018-08-19T09:57:42.697Z,29.10
2018-08-19T10:00:12.771Z,29.00
2018-08-19T10:02:46.483Z,28.80
2018-08-19T10:05:22.896Z,28.70
2018-08-19T10:07:52.209Z,28.60
2018-08-19T10:10:21.420Z,28.50
2018-08-19T10:12:49.913Z,28.40
2018-08-19T10:15:18.435Z,28.30
2018-08-19T10:17:47.079Z,28.30
2018-08-19T10:20:15.464Z,28.20
2018-08-19T10:22:44.299Z,28.00
2018-08-19T10:25:16.869Z,28.00
2018-08-19T10:27:49.283Z,27.90
2018-08-19T10:30:18.597Z,27.80
2018-08-19T10:33:12.049Z,27.80
2018-08-19T10:35:40.571Z,27.80
2018-08-19T10:38:09.064Z,27.70
2018-08-19T10:40:37.623Z,27.70
2018-08-19T10:43:09.991Z,27.70
2018-08-19T10:45:41.630Z,27.60
2018-08-19T10:48:12.459Z,27.60
2018-08-19T10:50:40.972Z,27.70
2018-08-19T10:53:15.865Z,27.60
2018-08-19T10:55:45.612Z,27.70
2018-08-19T10:58:14.115Z,27.60
2018-08-19T11:00:42.623Z,27.70
2018-08-19T11:03:16.659Z,27.60
2018-08-19T11:05:46.334Z,27.60
2018-08-19T11:08:14.833Z,27.60
2018-08-19T11:10:43.340Z,27.60
2018-08-19T11:13:11.867Z,27.60
2018-08-19T11:15:44.091Z,27.50
2018-08-19T11:18:22.560Z,27.50
2018-08-19T11:20:53.775Z,27.50
2018-08-19T11:23:24.331Z,27.40
2018-08-19T11:25:53.935Z,27.40
2018-08-19T11:28:32.540Z,27.40
2018-08-19T11:31:01.060Z,27.40
2018-08-19T11:33:39.191Z,27.40
2018-08-19T11:36:08.367Z,27.30
2018-08-19T11:38:37.172Z,27.30
2018-08-19T11:41:07.079Z,27.30
2018-08-19T11:43:38.658Z,27.30
2018-08-19T11:46:07.721Z,27.30
2018-08-19T11:48:37.004Z,27.20
2018-08-19T11:51:05.527Z,27.20
2018-08-19T11:53:34.553Z,27.20
2018-08-19T11:56:03.054Z,27.10
2018-08-19T11:58:43.047Z,27.10
2018-08-19T12:01:13.944Z,27.10
2018-08-19T12:03:55.527Z,27.10
2018-08-19T12:06:28.355Z,27.10
2018-08-19T12:08:58.045Z,27.10
2018-08-19T12:11:32.643Z,27.10
2018-08-19T12:14:04.703Z,27.10
2018-08-19T12:16:40.967Z,27.10
2018-08-19T12:19:14.716Z,27.10
2018-08-19T12:21:48.450Z,27.10
2018-08-19T12:24:20.831Z,27.10
2018-08-19T12:26:49.397Z,27.00
2018-08-19T12:29:17.920Z,27.00
2018-08-19T12:31:46.417Z,27.00
2018-08-19T12:34:14.912Z,27.00
2018-08-19T12:36:43.412Z,27.00
2018-08-19T12:39:11.912Z,27.00
2018-08-19T12:41:44.914Z,26.90
2018-08-19T12:44:19.552Z,26.90
2018-08-19T12:47:05.457Z,26.90
2018-08-19T12:49:36.929Z,26.90
2018-08-19T12:52:05.467Z,26.90
2018-08-19T12:54:34.359Z,26.80
2018-08-19T12:57:02.860Z,26.80
2018-08-19T12:59:31.399Z,26.80
2018-08-19T13:01:59.908Z,26.80
2018-08-19T13:04:28.436Z,26.80
2018-08-19T13:07:03.919Z,26.80
2018-08-19T13:09:32.923Z,26.80
2018-08-19T13:12:04.892Z,26.70
2018-08-19T13:14:33.690Z,26.70
2018-08-19T13:17:02.199Z,26.70
2018-08-19T13:19:31.358Z,26.70
2018-08-19T13:22:00.867Z,26.70
2018-08-19T13:24:34.727Z,26.70
2018-08-19T13:27:03.555Z,26.70
2018-08-19T13:29:32.479Z,26.70
2018-08-19T13:32:00.987Z,26.60
2018-08-19T13:34:29.933Z,26.60
2018-08-19T13:36:58.907Z,26.60
2018-08-19T13:39:28.178Z,26.60
2018-08-19T13:41:56.893Z,26.60
2018-08-19T13:44:25.404Z,26.60
2018-08-19T13:46:54.215Z,26.60
2018-08-19T13:49:24.427Z,26.60
2018-08-19T13:51:53.165Z,26.60
2018-08-19T13:54:22.782Z,26.60
2018-08-19T13:56:51.468Z,26.60
2018-08-19T13:59:19.973Z,26.60
2018-08-19T14:01:48.478Z,26.60
2018-08-19T14:04:16.987Z,26.60
2018-08-19T14:06:45.942Z,26.60
2018-08-19T14:09:14.978Z,26.60
2018-08-19T14:11:43.477Z,26.60
2018-08-19T14:14:12.573Z,26.60
2018-08-19T14:16:41.072Z,26.60
2018-08-19T14:19:09.570Z,26.60
2018-08-19T14:21:38.067Z,26.60
2018-08-19T14:24:06.571Z,26.60
2018-08-19T14:26:35.070Z,26.60
2018-08-19T14:29:03.572Z,26.60
2018-08-19T14:31:32.071Z,26.50
2018-08-19T14:34:00.570Z,26.50
2018-08-19T14:36:29.054Z,26.50
2018-08-19T14:38:57.937Z,26.50
2018-08-19T14:41:26.439Z,26.50
2018-08-19T14:44:03.275Z,26.60
2018-08-19T14:46:32.810Z,26.60
2018-08-19T14:49:03.650Z,26.60
2018-08-19T14:51:56.352Z,26.60
2018-08-19T14:54:24.864Z,26.60
2018-08-19T14:56:53.388Z,26.60
2018-08-19T14:59:21.891Z,26.50
2018-08-19T15:01:50.398Z,26.50
2018-08-19T15:04:19.152Z,26.40
2018-08-19T15:06:48.746Z,26.40
2018-08-19T15:09:33.674Z,26.30
2018-08-19T15:12:12.271Z,26.30
2018-08-19T15:14:41.223Z,26.30
2018-08-19T15:17:10.503Z,26.30
2018-08-19T15:19:42.024Z,26.20
2018-08-19T15:22:10.744Z,26.20
2018-08-19T15:24:39.268Z,26.20
2018-08-19T15:27:07.788Z,26.10
2018-08-19T15:29:44.101Z,26.10
2018-08-19T15:32:13.232Z,26.00
2018-08-19T15:34:41.623Z,26.00
2018-08-19T15:37:10.460Z,26.00
2018-08-19T15:39:39.170Z,26.00
2018-08-19T15:42:07.933Z,26.00
2018-08-19T15:44:36.443Z,26.00
2018-08-19T15:47:05.197Z,26.00
2018-08-19T15:49:33.715Z,26.00
2018-08-19T15:52:02.228Z,26.10
2018-08-19T15:54:30.727Z,26.10
2018-08-19T15:57:01.834Z,26.00
2018-08-19T15:59:35.572Z,26.00
2018-08-19T16:02:04.559Z,26.00
2018-08-19T16:04:33.067Z,26.00
2018-08-19T16:07:01.823Z,26.00
2018-08-19T16:09:30.804Z,25.90
2018-08-19T16:11:59.299Z,26.00
2018-08-19T16:14:31.846Z,25.90
2018-08-19T16:17:01.727Z,25.90
2018-08-19T16:19:30.225Z,25.80
2018-08-19T16:21:59.708Z,25.80
2018-08-19T16:24:28.591Z,25.80
2018-08-19T16:26:57.091Z,25.80
2018-08-19T16:29:25.588Z,25.80
2018-08-19T16:31:54.172Z,25.80
2018-08-19T16:34:22.599Z,25.80
2018-08-19T16:36:51.097Z,25.80
2018-08-19T16:39:19.666Z,25.80
2018-08-19T16:41:48.135Z,25.70
2018-08-19T16:44:16.641Z,25.70
2018-08-19T16:46:45.134Z,25.70
2018-08-19T16:49:13.711Z,25.70
2018-08-19T16:51:42.220Z,25.70
2018-08-19T16:54:10.798Z,25.70
2018-08-19T16:56:39.291Z,25.70
2018-08-19T16:59:07.791Z,25.60
2018-08-19T17:01:36.280Z,25.70
2018-08-19T17:04:04.792Z,25.70
2018-08-19T17:06:33.283Z,25.60
2018-08-19T17:09:01.788Z,25.60
2018-08-19T17:11:30.320Z,25.60
2018-08-19T17:13:58.812Z,25.60
2018-08-19T17:16:27.325Z,25.60
2018-08-19T17:18:55.831Z,25.60
2018-08-19T17:21:24.328Z,25.60
2018-08-19T17:23:52.835Z,25.60
2018-08-19T17:26:23.480Z,25.60
2018-08-19T17:28:52.179Z,25.50
2018-08-19T17:31:21.056Z,25.50
2018-08-19T17:33:49.543Z,25.50
2018-08-19T17:36:37.503Z,25.60
2018-08-19T17:39:09.042Z,25.50
2018-08-19T17:41:37.499Z,25.60
2018-08-19T17:44:06.005Z,25.50
2018-08-19T17:46:34.508Z,25.50
2018-08-19T17:49:03.020Z,25.50
2018-08-19T17:51:33.541Z,25.50
2018-08-19T17:54:02.098Z,25.50
2018-08-19T17:56:30.594Z,25.50
2018-08-19T17:58:59.115Z,25.60
2018-08-19T18:01:27.675Z,25.60
2018-08-19T18:03:56.184Z,25.60
2018-08-19T18:06:24.699Z,25.60
2018-08-19T18:08:54.081Z,25.60
2018-08-19T18:11:23.056Z,25.60
2018-08-19T18:13:51.623Z,25.60
2018-08-19T18:16:20.121Z,25.60
2018-08-19T18:18:49.118Z,25.50
2018-08-19T18:21:17.633Z,25.40
2018-08-19T18:23:47.948Z,25.40
2018-08-19T18:26:16.707Z,25.30
2018-08-19T18:28:46.991Z,25.20
2018-08-19T18:31:18.923Z,25.10
2018-08-19T18:33:52.791Z,25.10
2018-08-19T18:36:22.507Z,25.10
2018-08-19T18:38:51.363Z,25.10
2018-08-19T18:41:51.259Z,25.00
2018-08-19T18:44:20.654Z,25.00
2018-08-19T18:46:49.167Z,25.00
2018-08-19T18:49:17.727Z,25.00
2018-08-19T18:51:48.419Z,25.00
2018-08-19T18:54:26.227Z,25.00
2018-08-19T18:56:55.101Z,24.90
2018-08-19T18:59:23.595Z,24.90
2018-08-19T19:01:53.336Z,24.90
2018-08-19T19:04:21.838Z,24.90
2018-08-19T19:06:50.351Z,24.90
2018-08-19T19:09:18.847Z,24.90
2018-08-19T19:11:50.363Z,24.80
2018-08-19T19:14:20.093Z,24.80
2018-08-19T19:16:49.734Z,24.80
2018-08-19T19:19:18.252Z,24.80
2018-08-19T19:22:04.195Z,24.80
2018-08-19T19:24:38.804Z,24.80
2018-08-19T19:27:08.031Z,24.70
2018-08-19T19:29:36.546Z,24.70
2018-08-19T19:32:35.968Z,24.70
2018-08-19T19:35:06.900Z,24.70
2018-08-19T19:37:35.403Z,24.70
2018-08-19T19:40:09.311Z,24.70
2018-08-19T19:42:37.845Z,24.70
2018-08-19T19:45:06.759Z,24.70
2018-08-19T19:47:35.255Z,24.70
2018-08-19T19:50:03.791Z,24.70
2018-08-19T19:52:32.277Z,24.70
2018-08-19T19:55:00.783Z,24.60
2018-08-19T19:57:29.280Z,24.60
2018-08-19T19:59:57.779Z,24.60
2018-08-19T20:02:31.091Z,24.60
2018-08-19T20:05:00.106Z,24.60
2018-08-19T20:07:59.395Z,24.60
2018-08-19T20:10:29.052Z,24.60
2018-08-19T20:12:57.547Z,24.50
2018-08-19T20:15:26.061Z,24.50
2018-08-19T20:17:54.580Z,24.50
2018-08-19T20:20:23.071Z,24.50
2018-08-19T20:22:51.579Z,24.50
2018-08-19T20:25:20.102Z,24.50
2018-08-19T20:27:54.020Z,24.50
2018-08-19T20:30:22.527Z,24.50
2018-08-19T20:32:51.057Z,24.50
2018-08-19T20:35:19.575Z,24.50
2018-08-19T20:37:48.096Z,24.40
2018-08-19T20:40:16.599Z,24.40
2018-08-19T20:42:45.104Z,24.40
2018-08-19T20:45:13.618Z,24.40
2018-08-19T20:47:42.112Z,24.40
2018-08-19T20:50:10.702Z,24.40
2018-08-19T20:52:44.815Z,24.40
2018-08-19T20:55:14.422Z,24.40
2018-08-19T20:57:43.411Z,24.30
2018-08-19T21:00:12.432Z,24.30
2018-08-19T21:02:40.936Z,24.30
2018-08-19T21:05:09.431Z,24.30
2018-08-19T21:07:37.970Z,24.30
2018-08-19T21:10:06.912Z,24.30
2018-08-19T21:12:35.411Z,24.30
2018-08-19T21:15:04.232Z,24.30
2018-08-19T21:17:33.206Z,24.20
2018-08-19T21:20:01.703Z,24.20
2018-08-19T21:22:30.251Z,24.20
2018-08-19T21:24:58.711Z,24.20
2018-08-19T21:27:27.232Z,24.20
2018-08-19T21:29:55.789Z,24.20
2018-08-19T21:32:24.260Z,24.20
2018-08-19T21:34:52.763Z,24.20
2018-08-19T21:37:26.614Z,24.10
2018-08-19T21:39:55.122Z,24.10
2018-08-19T21:42:24.720Z,24.10
2018-08-19T21:44:53.220Z,24.10
2018-08-19T21:47:21.723Z,24.10
2018-08-19T21:49:54.413Z,24.10
2018-08-19T21:52:22.907Z,24.10
2018-08-19T21:54:51.399Z,24.10
2018-08-19T21:57:19.892Z,24.10
2018-08-19T21:59:48.381Z,24.00
2018-08-19T22:02:21.996Z,24.00
2018-08-19T22:04:50.500Z,24.00
2018-08-19T22:07:18.994Z,24.00
2018-08-19T22:09:47.502Z,24.00
2018-08-19T22:12:16.008Z,24.00
2018-08-19T22:14:44.706Z,24.00
2018-08-19T22:17:13.509Z,24.00
2018-08-19T22:19:42.047Z,24.00
2018-08-19T22:22:10.540Z,24.00
2018-08-19T22:24:39.091Z,23.90
2018-08-19T22:27:12.716Z,23.90
2018-08-19T22:29:41.218Z,23.90
2018-08-19T22:32:09.722Z,23.90
2018-08-19T22:34:38.215Z,23.90
2018-08-19T22:37:07.195Z,23.90
2018-08-19T22:39:35.727Z,23.90
2018-08-19T22:42:04.247Z,23.90
2018-08-19T22:44:33.080Z,23.80
2018-08-19T22:47:01.587Z,23.90
2018-08-19T22:49:30.086Z,23.80
2018-08-19T22:52:31.259Z,23.80
2018-08-19T22:55:00.162Z,23.80
2018-08-19T22:57:29.139Z,23.80
2018-08-19T22:59:57.635Z,23.80
2018-08-19T23:02:26.151Z,23.80
2018-08-19T23:04:54.647Z,23.80
2018-08-19T23:07:23.151Z,23.80
2018-08-19T23:09:51.655Z,23.80
2018-08-19T23:12:20.155Z,23.80
2018-08-19T23:14:59.891Z,23.70
2018-08-19T23:17:28.387Z,23.70
2018-08-19T23:19:56.887Z,23.70
2018-08-19T23:22:25.375Z,23.70
2018-08-19T23:24:53.878Z,23.70
2018-08-19T23:27:22.381Z,23.70
2018-08-19T23:29:50.879Z,23.70
2018-08-19T23:32:19.384Z,23.70
2018-08-19T23:34:47.880Z,23.70
2018-08-19T23:37:16.377Z,23.70
2018-08-19T23:39:44.866Z,23.70
2018-08-19T23:42:13.355Z,23.70
2018-08-19T23:44:41.856Z,23.70
2018-08-19T23:47:10.351Z,23.60
2018-08-19T23:49:38.843Z,23.60
2018-08-19T23:52:07.355Z,23.60
2018-08-19T23:54:35.860Z,23.60
2018-08-19T23:57:04.363Z,23.60
2018-08-19T23:59:35.545Z,23.60
